Time;durP1;ratioP1;P1;durP2;ratioP2;P2;SDS_P1;SDS_P2;PMS_P1;PMS_P2;Temp;Humidity;BMP_temperature;BMP_pressure;BME280_temperature;BME280_humidity;BME280_pressure;Samples;Min_cycle;Max_cycle;Signal;HPM_P1;HPM_P2
2022/08/21 00:02:17;;;;;;;4.13;3.83;;;;;;;20.58;69.89;96777.47;10416919;28;20057;-50
2022/08/21 00:07:37;;;;;;;4.40;4.00;;;;;;;20.58;69.93;96780.19;10411346;28;20057;-50
2022/08/21 00:12:56;;;;;;;4.22;3.92;;;;;;;20.60;69.86;96779.88;10416417;28;20053;-49
2022/08/21 00:18:17;;;;;;;3.95;3.65;;;;;;;20.58;69.77;96776.66;10416490;28;20057;-50
2022/08/21 00:23:36;;;;;;;4.20;3.90;;;;;;;20.59;69.76;96779.09;10429425;28;20413;-48
2022/08/21 00:28:56;;;;;;;4.03;3.72;;;;;;;20.58;69.72;96782.91;10429550;28;20401;-51
2022/08/21 00:34:15;;;;;;;4.07;3.78;;;;;;;20.58;69.77;96774.78;10415980;28;20058;-50
2022/08/21 00:39:34;;;;;;;4.20;3.80;;;;;;;20.59;69.76;96779.09;10415152;28;20562;-50
2022/08/21 00:44:54;;;;;;;5.05;3.97;;;;;;;20.58;69.75;96769.38;10403389;28;20049;-49
2022/08/21 00:50:14;;;;;;;4.20;3.90;;;;;;;20.57;69.58;96765.06;10415077;28;20107;-50
2022/08/21 00:55:34;;;;;;;4.28;3.97;;;;;;;20.58;69.69;96760.44;10414596;28;20481;-50
2022/08/21 01:00:54;;;;;;;4.15;3.85;;;;;;;20.58;69.69;96758.53;10395382;28;20049;-52
2022/08/21 01:06:13;;;;;;;4.20;3.90;;;;;;;20.57;69.70;96767.75;10406019;28;20057;-49
2022/08/21 01:11:33;;;;;;;4.10;3.80;;;;;;;20.57;69.67;96759.66;10427485;28;20099;-50
2022/08/21 01:16:52;;;;;;;4.18;3.88;;;;;;;20.57;69.64;96751.53;10415005;28;20084;-49
2022/08/21 01:22:13;;;;;;;4.10;3.80;;;;;;;20.56;69.59;96752.63;10414401;28;20053;-49
2022/08/21 01:27:32;;;;;;;4.18;3.88;;;;;;;20.57;69.69;96746.13;10414115;28;20049;-51
2022/08/21 01:32:52;;;;;;;4.32;4.03;;;;;;;20.57;69.63;96748.03;10414109;28;20053;-50
2022/08/21 01:38:11;;;;;;;4.07;3.78;;;;;;;20.57;69.54;96748.81;10425899;28;20488;-50
2022/08/21 01:43:31;;;;;;;4.43;4.13;;;;;;;20.57;69.52;96745.31;10414270;28;20377;-50
2022/08/21 01:48:51;;;;;;;4.07;3.78;;;;;;;20.57;69.53;96737.22;10413287;28;20057;-50
2022/08/21 01:54:10;;;;;;;4.30;4.00;;;;;;;20.56;69.43;96725.56;10402026;28;20068;-48
2022/08/21 01:59:30;;;;;;;4.38;4.00;;;;;;;20.55;69.47;96730.19;10413384;28;20108;-49
2022/08/21 02:04:50;;;;;;;4.53;4.22;;;;;;;20.55;69.45;96719.38;10413484;28;20111;-48
2022/08/21 02:10:12;;;;;;;3.92;3.63;;;;;;;20.55;69.40;96718.59;10413014;28;20084;-49
2022/08/21 02:15:32;;;;;;;4.22;3.92;;;;;;;20.55;69.44;96715.88;10413335;28;20128;-50
2022/08/21 02:20:51;;;;;;;4.40;4.10;;;;;;;20.55;69.35;96713.19;10426338;28;20057;-50
2022/08/21 02:26:11;;;;;;;4.32;4.03;;;;;;;20.53;69.31;96699.19;10419888;28;20056;-50
2022/08/21 02:31:31;;;;;;;4.45;4.05;;;;;;;20.54;69.46;96704.28;10420829;28;20107;-50
2022/08/21 02:36:50;;;;;;;4.35;4.05;;;;;;;20.55;69.32;96702.34;10420645;28;20104;-49
2022/08/21 02:42:10;;;;;;;4.57;4.20;;;;;;;20.55;69.33;96707.75;10419833;28;20108;-50
2022/08/21 02:47:29;;;;;;;5.70;4.38;;;;;;;20.54;69.33;96711.59;10419523;28;20053;-51
2022/08/21 02:52:49;;;;;;;4.32;4.03;;;;;;;20.55;69.28;96702.34;10433244;28;20041;-51
2022/08/21 02:58:08;;;;;;;4.72;4.35;;;;;;;20.54;69.24;96700.75;10398502;28;20111;-50
2022/08/21 03:03:28;;;;;;;4.43;4.13;;;;;;;20.54;69.28;96706.16;10412688;28;20420;-49
2022/08/21 03:08:48;;;;;;;4.25;3.95;;;;;;;20.54;69.24;96700.75;10404785;28;20050;-50
2022/08/21 03:14:08;;;;;;;4.38;4.03;;;;;;;20.53;69.18;96715.44;10417309;28;20061;-51
2022/08/21 03:19:28;;;;;;;4.28;3.97;;;;;;;20.52;69.25;96706.53;10411684;28;20069;-51
2022/08/21 03:24:48;;;;;;;4.28;3.88;;;;;;;20.53;69.15;96712.72;10432210;28;20096;-50
2022/08/21 03:30:09;;;;;;;4.30;4.00;;;;;;;20.53;69.00;96720.84;10418732;28;20133;-51
2022/08/21 03:35:29;;;;;;;4.57;4.28;;;;;;;20.53;69.18;96716.22;10418182;28;20045;-50
2022/08/21 03:40:48;;;;;;;4.68;4.30;;;;;;;20.53;69.02;96723.53;10417599;28;20084;-49
2022/08/21 03:46:08;;;;;;;4.47;4.18;;;;;;;20.52;69.09;96716.53;10417695;28;20056;-50
2022/08/21 03:51:27;;;;;;;4.80;4.47;;;;;;;20.52;69.11;96713.81;10410761;28;20092;-50
2022/08/21 03:56:47;;;;;;;5.32;4.93;;;;;;;20.53;69.04;96716.22;10414417;28;20053;-51
2022/08/21 04:02:07;;;;;;;4.30;4.00;;;;;;;20.52;69.14;96736.28;10415782;28;20045;-50
2022/08/21 04:07:26;;;;;;;5.03;4.63;;;;;;;20.52;69.06;96725.47;10417246;28;20049;-51
2022/08/21 04:12:46;;;;;;;4.50;4.20;;;;;;;20.51;68.97;96734.69;10430237;28;20042;-50
2022/08/21 04:18:05;;;;;;;4.93;4.53;;;;;;;20.52;69.08;96722.75;10401443;28;20141;-49
2022/08/21 04:23:25;;;;;;;4.60;4.20;;;;;;;20.51;69.15;96723.88;10416570;28;20049;-50
2022/08/21 04:28:45;;;;;;;4.75;4.35;;;;;;;20.52;69.08;96740.91;10401412;28;20042;-49
2022/08/21 04:34:04;;;;;;;4.57;4.25;;;;;;;20.51;69.09;96744.75;10415956;28;20095;-50
2022/08/21 04:39:24;;;;;;;4.55;4.25;;;;;;;20.51;68.91;96742.03;10408276;28;20061;-51
2022/08/21 04:44:43;;;;;;;4.50;4.20;;;;;;;20.51;69.03;96750.16;10415091;28;20049;-50
2022/08/21 04:50:02;;;;;;;4.78;4.38;;;;;;;20.51;69.11;96755.56;10415665;28;20046;-50
2022/08/21 04:55:23;;;;;;;5.10;4.10;;;;;;;20.52;69.02;96757.94;10415223;28;20056;-51
2022/08/21 05:00:44;;;;;;;4.50;4.20;;;;;;;20.52;69.05;96762.53;10410122;28;20405;-48
2022/08/21 05:06:05;;;;;;;4.80;4.40;;;;;;;20.53;69.02;96766.84;10402130;28;20091;-49
2022/08/21 05:11:25;;;;;;;4.32;3.97;;;;;;;20.53;69.09;96764.91;10415821;28;20045;-50
2022/08/21 05:16:44;;;;;;;4.18;3.83;;;;;;;20.53;69.30;96773.03;10414700;28;20057;-50
2022/08/21 05:22:04;;;;;;;4.47;4.18;;;;;;;20.54;69.27;96781.94;10414614;28;20060;-49
2022/08/21 05:27:23;;;;;;;4.60;4.20;;;;;;;20.53;69.24;96780.38;10414664;28;20045;-50
2022/08/21 05:32:43;;;;;;;4.78;4.40;;;;;;;20.55;69.31;96795.16;10402097;28;20058;-49
2022/08/21 05:38:03;;;;;;;9.18;7.88;;;;;;;20.37;67.77;96782.88;10413362;28;20062;-50
2022/08/21 05:43:22;;;;;;;8.57;7.68;;;;;;;20.23;67.75;96793.97;10413159;28;20631;-50
2022/08/21 05:48:42;;;;;;;7.40;6.70;;;;;;;20.16;67.76;96788.28;10413459;28;20060;-50
2022/08/21 05:54:01;;;;;;;6.93;6.30;;;;;;;20.10;67.71;96793.09;10413149;28;20050;-50
2022/08/21 05:59:20;;;;;;;6.75;6.15;;;;;;;20.06;67.52;96794.06;10415972;28;20057;-50
2022/08/21 06:04:40;;;;;;;6.32;5.72;;;;;;;20.02;67.46;96795.84;10421739;28;20053;-51
2022/08/21 06:09:59;;;;;;;6.28;5.78;;;;;;;20.01;67.77;96796.94;10422044;28;20049;-50
2022/08/21 06:15:19;;;;;;;6.03;5.53;;;;;;;19.97;67.90;96804.13;10421559;28;20049;-51
2022/08/21 06:20:39;;;;;;;6.18;5.60;;;;;;;19.94;67.80;96800.97;10421316;28;20405;-49
2022/08/21 06:25:59;;;;;;;5.30;4.80;;;;;;;19.95;68.08;96804.47;10420644;28;20057;-50
2022/08/21 06:31:21;;;;;;;3.80;3.50;;;;;;;20.04;67.99;96810.63;10408736;28;20111;-52
2022/08/21 06:36:40;;;;;;;3.25;2.95;;;;;;;20.12;67.82;96806.28;10416485;28;20045;-50
2022/08/21 06:42:00;;;;;;;3.72;3.42;;;;;;;20.17;67.82;96810.69;10411998;28;20045;-60
2022/08/21 06:47:21;;;;;;;3.35;3.08;;;;;;;20.22;68.02;96818.63;10420363;28;20050;-57
2022/08/21 06:52:41;;;;;;;4.22;3.40;;;;;;;20.23;68.13;96815.59;10419327;28;20496;-49
2022/08/21 06:58:00;;;;;;;6.40;3.22;;;;;;;20.27;68.19;96810.34;10432912;28;20048;-46
2022/08/21 07:03:29;;;;;;;3.50;3.03;;;;;;;-146.19;100.00;65364.44;10420142;28;20128;-54
2022/08/21 07:08:48;;;;;;;3.58;2.55;;;;;;;20.29;68.45;96819.69;10418606;28;20057;-50
2022/08/21 07:14:07;;;;;;;3.60;3.30;;;;;;;20.32;68.47;96815.53;10419406;28;20056;-46
2022/08/21 07:19:27;;;;;;;5.75;3.42;;;;;;;20.33;68.59;96819.84;10419119;28;20079;-47
2022/08/21 07:24:46;;;;;;;3.40;3.20;;;;;;;20.33;68.67;96831.44;10432443;28;20041;-51
2022/08/21 07:30:06;;;;;;;3.67;3.28;;;;;;;20.34;68.73;96824.91;10432017;28;20045;-51
2022/08/21 07:35:27;;;;;;;3.58;3.28;;;;;;;20.37;68.80;96836.22;10418260;28;20513;-52
2022/08/21 07:40:47;;;;;;;3.70;3.50;;;;;;;20.35;68.69;96820.31;10406135;28;20520;-49
2022/08/21 07:46:07;;;;;;;4.18;3.45;;;;;;;20.35;68.65;96831.91;10416097;28;20139;-49
2022/08/21 07:51:27;;;;;;;4.35;3.95;;;;;;;20.35;68.11;96839.25;10417292;28;20131;-51
2022/08/21 07:56:47;;;;;;;4.20;3.90;;;;;;;20.31;68.19;96843.72;10417317;28;20073;-50
2022/08/21 08:02:07;;;;;;;3.88;3.53;;;;;;;20.32;68.16;96839.88;10431041;28;20048;-50
2022/08/21 08:07:27;;;;;;;5.57;3.60;;;;;;;20.32;68.21;96840.66;10417304;28;20060;-51
2022/08/21 08:12:47;;;;;;;6.00;3.30;;;;;;;20.32;68.13;96835.25;10416204;28;20128;-51
2022/08/21 08:18:06;;;;;;;3.85;3.15;;;;;;;20.34;68.18;96840.34;10429932;28;20041;-49
2022/08/21 08:23:27;;;;;;;3.40;3.10;;;;;;;20.33;68.15;96836.84;10416728;28;20076;-48
2022/08/21 08:28:47;;;;;;;3.63;3.15;;;;;;;20.32;68.20;96829.84;10416599;28;20057;-50
2022/08/21 08:34:06;;;;;;;3.33;3.03;;;;;;;20.34;68.01;96822.19;10406164;28;20123;-51
2022/08/21 08:39:26;;;;;;;3.15;2.95;;;;;;;20.34;68.04;96824.13;10415595;28;20061;-51
2022/08/21 08:44:46;;;;;;;5.85;2.90;;;;;;;20.34;68.08;96818.72;10415259;28;20519;-50
2022/08/21 08:50:19;;;;;;;3.72;3.00;;;;;;;20.34;67.85;96830.31;10415229;28;20049;-48
2022/08/21 08:55:42;;;;;;;5.32;2.78;;;;;;;20.34;67.94;96833.03;10406491;28;20431;-50
2022/08/21 09:01:01;;;;;;;3.10;2.80;;;;;;;20.33;67.81;96828.75;10414331;28;20492;-50
2022/08/21 09:06:40;;;;;;;2.92;2.63;;;;;;;20.34;67.83;96821.41;10399794;28;20053;-51
2022/08/21 09:12:07;;;;;;;3.08;2.88;;;;;;;20.37;67.80;96833.50;10406088;28;20050;-53
2022/08/21 09:17:47;;;;;;;3.00;2.77;;;;;;;20.37;67.77;96828.09;10399832;28;20053;-50
2022/08/21 09:23:18;;;;;;;4.13;2.70;;;;;;;20.37;67.94;96822.69;10412708;28;20037;-50
2022/08/21 09:28:38;;;;;;;3.15;2.85;;;;;;;20.37;67.93;96820.78;10414107;28;20053;-50
2022/08/21 09:34:06;;;;;;;3.00;2.80;;;;;;;20.37;67.96;96819.97;10413936;28;20060;-51
2022/08/21 09:39:32;;;;;;;3.17;2.80;;;;;;;20.35;67.85;96831.91;10404445;28;20066;-50
2022/08/21 09:45:10;;;;;;;4.65;2.60;;;;;;;20.37;67.84;96828.09;10399076;28;20125;-50
2022/08/21 09:50:30;;;;;;;2.70;2.50;;;;;;;20.37;67.98;96825.41;10415639;28;20069;-48
2022/08/21 10:01:31;;;;;;;3.20;2.90;;;;;;;20.37;67.99;96819.97;10426742;28;20041;-50
2022/08/21 10:06:51;;;;;;;4.22;3.17;;;;;;;20.36;67.91;96819.16;10398590;28;20057;-49
2022/08/21 10:12:51;;;;;;;3.47;3.17;;;;;;;20.38;67.89;96821.56;10413607;28;20075;-50
2022/08/21 10:18:25;;;;;;;3.25;2.95;;;;;;;20.38;67.96;96813.44;10396753;28;20053;-49
2022/08/21 10:23:51;;;;;;;3.20;2.90;;;;;;;20.38;67.96;96811.50;10398627;28;20106;-48
2022/08/21 10:29:25;;;;;;;3.50;3.20;;;;;;;20.39;67.90;96806.91;10411237;28;20044;-49
2022/08/21 10:34:57;;;;;;;4.20;3.47;;;;;;;20.39;67.92;96815.03;10412449;28;20496;-47
2022/08/21 10:40:27;;;;;;;4.30;3.70;;;;;;;20.40;67.81;96811.19;10412313;28;20061;-50
2022/08/21 10:45:55;;;;;;;4.50;3.55;;;;;;;20.39;67.44;96802.28;10391579;28;20493;-50
2022/08/21 10:51:18;;;;;;;6.22;3.67;;;;;;;20.40;66.99;96797.66;10419719;28;20053;-49
2022/08/21 10:56:40;;;;;;;3.08;2.88;;;;;;;20.40;66.97;96803.06;10418352;28;20068;-49
2022/08/21 11:02:11;;;;;;;5.05;3.22;;;;;;;20.40;66.90;96803.06;10399839;28;20056;-51
2022/08/21 11:07:38;;;;;;;3.58;2.90;;;;;;;20.39;66.70;96802.28;10419865;28;20049;-47
2022/08/21 11:13:06;;;;;;;6.15;3.33;;;;;;;20.39;66.60;96796.88;10403554;28;20492;-49
2022/08/21 11:18:34;;;;;;;4.88;3.03;;;;;;;20.40;66.47;96793.03;10404080;28;20492;-48
2022/08/21 11:23:57;;;;;;;6.00;3.03;;;;;;;20.40;66.24;96784.13;10404206;28;20061;-48
2022/08/21 11:29:22;;;;;;;3.65;2.85;;;;;;;20.41;66.20;96777.63;10406463;28;20052;-49
2022/08/21 11:34:47;;;;;;;2.83;2.50;;;;;;;20.42;66.23;96779.19;10418683;28;20049;-49
2022/08/21 11:40:21;;;;;;;4.88;2.60;;;;;;;20.42;66.17;96771.84;10403634;28;20057;-48
2022/08/21 11:45:45;;;;;;;3.25;2.55;;;;;;;20.40;66.21;96771.38;10411141;28;20057;-50
2022/08/21 11:51:09;;;;;;;3.38;2.80;;;;;;;20.42;66.40;96771.06;10402668;28;20103;-48
2022/08/21 11:56:38;;;;;;;3.50;3.08;;;;;;;20.43;66.45;96778.84;10401728;28;20053;-49
2022/08/21 12:01:57;;;;;;;3.10;2.60;;;;;;;20.43;66.62;96778.06;10407148;28;20045;-50
2022/08/21 12:07:29;;;;;;;3.45;2.88;;;;;;;20.43;66.61;96769.97;10416931;28;20049;-50
2022/08/21 12:12:48;;;;;;;3.42;2.60;;;;;;;20.43;66.73;96769.97;10417221;28;20087;-50
2022/08/21 12:18:24;;;;;;;3.88;2.42;;;;;;;20.44;66.81;96768.81;10390960;28;20389;-49
2022/08/21 12:23:47;;;;;;;3.85;2.70;;;;;;;20.44;66.90;96764.19;10430314;28;20045;-49
2022/08/21 12:29:12;;;;;;;2.88;2.50;;;;;;;20.45;66.85;96757.69;10429878;28;20056;-49
2022/08/21 12:34:39;;;;;;;3.00;2.53;;;;;;;20.46;66.92;96764.66;10429189;28;20037;-47
2022/08/21 12:40:00;;;;;;;4.00;3.00;;;;;;;20.45;66.83;96762.31;10415806;28;20065;-50
2022/08/21 12:45:43;;;;;;;3.97;3.00;;;;;;;20.44;65.97;96758.00;10415554;28;20160;-51
2022/08/21 12:51:25;;;;;;;4.28;3.25;;;;;;;20.43;65.42;96765.34;10414644;28;20444;-51
2022/08/21 12:56:59;;;;;;;4.38;3.47;;;;;;;20.42;65.40;96760.25;10414178;28;20057;-48
2022/08/21 13:02:22;;;;;;;4.93;3.38;;;;;;;20.42;65.18;96749.41;10415183;28;20053;-47
2022/08/21 13:07:47;;;;;;;5.82;3.10;;;;;;;20.42;64.99;96749.41;10427378;28;20045;-49
2022/08/21 13:13:12;;;;;;;2.90;2.60;;;;;;;20.43;65.04;96748.31;10399345;28;20139;-48
2022/08/21 13:18:35;;;;;;;3.92;3.10;;;;;;;20.42;64.90;96755.63;10413943;28;20493;-48
2022/08/21 13:24:08;;;;;;;4.13;2.75;;;;;;;20.42;64.33;96757.53;10399970;28;20053;-50
2022/08/21 13:29:34;;;;;;;4.82;3.38;;;;;;;20.41;64.36;96748.63;10403618;28;20124;-48
2022/08/21 13:34:54;;;;;;;2.80;2.60;;;;;;;20.41;64.31;96745.94;10399711;28;20068;-48
2022/08/21 13:40:19;;;;;;;3.80;2.65;;;;;;;20.41;63.53;96755.97;10414090;28;20061;-50
2022/08/21 13:45:38;;;;;;;5.97;2.70;;;;;;;20.41;63.78;96748.63;10403418;28;20050;-49
2022/08/21 13:50:57;;;;;;;13.75;5.50;;;;;;;20.40;62.95;96744.34;10412987;28;20046;-48
2022/08/21 13:56:29;;;;;;;8.35;3.25;;;;;;;20.42;62.56;96746.72;10414006;28;20058;-51
2022/08/21 14:01:54;;;;;;;4.63;2.75;;;;;;;20.44;62.74;96750.66;10413933;28;20064;-50
2022/08/21 14:07:20;;;;;;;6.30;3.17;;;;;;;20.45;63.03;96746.06;10413797;28;20056;-48
2022/08/21 14:12:47;;;;;;;4.90;2.80;;;;;;;20.44;62.46;96749.88;10412184;28;20054;-49
2022/08/21 14:18:16;;;;;;;4.07;2.55;;;;;;;20.45;62.51;96748.78;10403861;28;20060;-48
2022/08/21 14:23:35;;;;;;;3.83;2.60;;;;;;;20.44;62.59;96744.47;10434882;28;20439;-48
2022/08/21 14:28:59;;;;;;;4.57;2.60;;;;;;;20.46;62.61;96740.31;10406801;28;20050;-48
2022/08/21 14:34:18;;;;;;;5.63;2.97;;;;;;;20.45;61.83;96752.25;10421289;28;20125;-50
2022/08/21 14:39:38;;;;;;;3.70;3.00;;;;;;;20.46;61.88;96742.22;10428612;28;20057;-49
2022/08/21 14:45:01;;;;;;;4.15;2.50;;;;;;;20.45;61.93;96738.72;10420770;28;20061;-47
2022/08/21 14:50:22;;;;;;;3.70;2.45;;;;;;;20.44;61.67;96739.06;10420533;28;20061;-50
2022/08/21 15:01:21;;;;;;;4.30;2.75;;;;;;;20.42;61.91;96735.88;10419580;28;20049;-47
2022/08/21 15:06:41;;;;;;;3.30;2.33;;;;;;;20.42;61.83;96746.72;10419720;28;20054;-49
2022/08/21 15:12:01;;;;;;;3.78;2.65;;;;;;;20.41;61.80;96729.69;10420016;28;20053;-49
2022/08/21 15:17:20;;;;;;;4.68;3.03;;;;;;;20.42;61.71;96727.78;10419559;28;20057;-48
2022/08/21 15:22:40;;;;;;;4.68;2.60;;;;;;;20.43;61.37;96726.66;10404470;28;20060;-49
2022/08/21 15:28:00;;;;;;;3.17;2.45;;;;;;;20.44;60.87;96729.00;10418493;28;20050;-50
2022/08/21 15:33:19;;;;;;;4.70;2.63;;;;;;;20.43;60.82;96721.25;10431256;28;20478;-49
2022/08/21 15:38:39;;;;;;;2.90;2.38;;;;;;;20.43;60.54;96721.25;10429005;28;20426;-48
2022/08/21 15:43:58;;;;;;;3.33;2.50;;;;;;;20.44;60.70;96733.66;10407029;28;20041;-48
2022/08/21 15:49:18;;;;;;;3.05;2.33;;;;;;;20.42;59.83;96728.56;10418215;28;20127;-49
2022/08/21 15:54:38;;;;;;;3.38;2.35;;;;;;;20.44;59.86;96733.66;10412465;28;20063;-49
2022/08/21 16:00:08;;;;;;;4.15;2.40;;;;;;;20.43;59.30;96724.75;10417471;28;20054;-50
2022/08/21 16:05:31;;;;;;;3.72;1.95;;;;;;;20.45;59.14;96735.25;10417272;28;20083;-48
2022/08/21 16:10:52;;;;;;;5.35;2.05;;;;;;;20.44;58.68;96733.66;10430367;28;20428;-49
2022/08/21 16:16:15;;;;;;;3.85;2.20;;;;;;;20.45;58.65;96733.31;10401989;28;20045;-51
2022/08/21 16:21:35;;;;;;;4.28;2.00;;;;;;;20.44;58.26;96733.66;10402003;28;20128;-51
2022/08/21 16:26:55;;;;;;;2.15;1.92;;;;;;;20.45;57.92;96737.94;10429776;28;20044;-49
2022/08/21 16:32:16;;;;;;;3.45;2.08;;;;;;;20.45;57.58;96748.78;10416346;28;20058;-50
2022/08/21 16:37:35;;;;;;;4.07;1.70;;;;;;;20.44;57.24;96749.88;10394206;28;20060;-50
2022/08/21 16:42:55;;;;;;;2.78;1.80;;;;;;;20.43;57.25;96743.69;10414582;28;20053;-50
2022/08/21 16:48:14;;;;;;;3.25;1.80;;;;;;;20.44;57.66;96739.06;10415580;28;20469;-50
2022/08/21 16:53:34;;;;;;;4.88;1.85;;;;;;;20.44;58.05;96745.25;10414409;28;20079;-50
2022/08/21 16:58:55;;;;;;;4.25;2.00;;;;;;;20.44;58.48;96734.44;10415019;28;20080;-54
2022/08/21 17:04:15;;;;;;;4.10;2.08;;;;;;;20.44;59.06;96733.66;10417764;28;20038;-50
2022/08/21 17:09:34;;;;;;;3.65;1.80;;;;;;;20.43;59.23;96727.44;10428230;28;20041;-50
2022/08/21 17:15:02;;;;;;;4.22;2.00;;;;;;;20.43;58.78;96729.38;10404621;28;20053;-50
2022/08/21 17:20:23;;;;;;;4.78;1.90;;;;;;;20.44;58.94;96723.59;10414390;28;20378;-53
2022/08/21 17:25:44;;;;;;;7.63;2.10;;;;;;;20.44;59.14;96722.81;10414621;28;20049;-52
2022/08/21 17:31:06;;;;;;;6.60;2.25;;;;;;;20.43;58.45;96726.66;10402184;28;20038;-51
2022/08/21 17:36:28;;;;;;;3.33;1.98;;;;;;;20.41;57.62;96740.53;10412396;28;20045;-52
2022/08/21 17:41:47;;;;;;;6.00;1.90;;;;;;;20.40;57.35;96743.56;10413743;28;20493;-50
2022/08/21 17:47:07;;;;;;;4.55;1.95;;;;;;;20.40;57.47;96748.97;10414082;28;20053;-52
2022/08/21 17:52:27;;;;;;;4.45;1.92;;;;;;;20.40;57.48;96751.66;10414671;28;20053;-51
2022/08/21 17:57:48;;;;;;;2.42;1.30;;;;;;;20.38;56.93;96757.41;10422065;28;20057;-48
2022/08/21 18:03:13;;;;;;;1.50;1.30;;;;;;;20.37;56.96;96765.88;10421958;28;20045;-49
2022/08/21 18:08:33;;;;;;;2.08;1.27;;;;;;;20.34;57.46;96773.50;10422066;28;20048;-51
2022/08/21 18:13:55;;;;;;;2.28;1.60;;;;;;;20.34;57.76;96775.41;10421756;28;20075;-51
2022/08/21 18:19:16;;;;;;;3.38;1.30;;;;;;;20.31;57.94;96778.81;10421290;28;20033;-51
2022/08/21 18:24:37;;;;;;;3.85;1.35;;;;;;;20.29;57.93;96775.63;10434919;28;20056;-51
2022/08/21 18:29:59;;;;;;;2.33;1.35;;;;;;;20.26;58.06;96785.19;10421458;28;20072;-49
2022/08/21 18:35:18;;;;;;;2.33;1.20;;;;;;;20.11;57.76;96775.75;10421018;28;20052;-49
2022/08/21 18:40:43;;;;;;;3.55;1.58;;;;;;;-146.19;100.00;65364.44;10420322;28;20067;-57
2022/08/21 18:46:03;;;;;;;4.05;1.60;;;;;;;-146.19;100.00;65364.44;10418789;28;20099;-56
2022/08/21 18:51:23;;;;;;;2.70;1.17;;;;;;;-146.19;100.00;65364.44;10420437;28;20065;-57
2022/08/21 18:56:43;;;;;;;2.80;1.60;;;;;;;-146.19;100.00;65364.44;10419670;28;20049;-57
2022/08/21 19:02:06;;;;;;;2.92;1.40;;;;;;;-146.19;100.00;65364.44;10405128;28;20045;-61
2022/08/21 19:07:26;;;;;;;3.95;1.25;;;;;;;-146.19;100.00;65364.44;10418683;28;20059;-59
2022/08/21 19:12:46;;;;;;;1.67;1.23;;;;;;;-146.19;100.00;65364.44;10419850;28;20099;-58
2022/08/21 19:18:10;;;;;;;2.13;1.45;;;;;;;-146.19;100.00;65364.44;10407597;28;20041;-60
2022/08/21 19:23:30;;;;;;;2.92;1.40;;;;;;;20.29;60.31;96776.41;10417281;28;20519;-45
2022/08/21 19:28:53;;;;;;;2.50;1.30;;;;;;;20.31;60.38;96784.22;10432454;28;20401;-49
2022/08/21 19:34:17;;;;;;;3.20;1.50;;;;;;;20.30;60.60;96786.09;10403870;28;20394;-44
2022/08/21 19:39:37;;;;;;;3.28;1.20;;;;;;;20.30;60.17;96790.72;10426201;28;20489;-47
2022/08/21 19:44:57;;;;;;;3.03;1.35;;;;;;;20.29;60.33;96786.47;10417938;28;20045;-48
2022/08/21 19:50:16;;;;;;;3.80;1.60;;;;;;;20.29;60.54;96789.94;10402844;28;20057;-48
2022/08/21 19:55:37;;;;;;;3.00;1.35;;;;;;;20.30;60.48;96793.44;10417928;28;20052;-48
2022/08/21 20:00:59;;;;;;;3.60;1.40;;;;;;;-146.19;100.00;65364.44;10417422;28;20072;-49
2022/08/21 20:06:19;;;;;;;2.97;1.27;;;;;;;-146.19;100.00;65364.44;10417604;28;20057;-47
2022/08/21 20:11:42;;;;;;;2.85;1.30;;;;;;;-146.19;100.00;65364.44;10430619;28;20098;-47
2022/08/21 20:17:08;;;;;;;1.35;1.17;;;;;;;20.31;60.90;96776.09;10401959;28;20045;-48
2022/08/21 20:22:28;;;;;;;1.80;1.20;;;;;;;20.31;60.92;96776.09;10416976;28;20053;-49
2022/08/21 20:27:48;;;;;;;1.48;1.25;;;;;;;20.32;61.11;96783.06;10416691;28;20054;-49
2022/08/21 20:33:08;;;;;;;4.55;1.80;;;;;;;20.31;61.18;96782.28;10415803;28;20547;-49
2022/08/21 20:38:28;;;;;;;1.58;1.30;;;;;;;20.31;61.21;96790.41;10403761;28;20061;-48
2022/08/21 20:43:49;;;;;;;2.03;1.30;;;;;;;20.32;61.22;96788.47;10414974;28;20057;-45
2022/08/21 20:49:11;;;;;;;1.40;1.27;;;;;;;20.31;61.34;96790.41;10415263;28;20469;-48
2022/08/21 20:54:44;;;;;;;3.13;1.27;;;;;;;20.32;61.34;96785.78;10400629;28;20056;-47
2022/08/21 21:00:11;;;;;;;1.92;1.20;;;;;;;20.32;61.47;96791.97;10428291;28;20042;-46
2022/08/21 21:05:35;;;;;;;2.45;1.20;;;;;;;20.32;61.68;96786.56;10428488;28;20554;-48
2022/08/21 21:11:02;;;;;;;2.85;1.48;;;;;;;20.31;61.61;96785.00;10400365;28;20065;-49
2022/08/21 21:16:31;;;;;;;1.80;1.17;;;;;;;20.32;61.72;96783.84;10413074;28;20076;-48
2022/08/21 21:21:57;;;;;;;1.38;1.13;;;;;;;20.32;61.67;96789.28;10414966;28;20069;-46
2022/08/21 21:27:24;;;;;;;1.70;1.27;;;;;;;20.32;61.68;96780.38;10399450;28;20064;-47
2022/08/21 21:32:43;;;;;;;1.35;1.20;;;;;;;20.30;61.72;96777.97;10407322;28;20046;-49
2022/08/21 21:38:16;;;;;;;5.30;1.60;;;;;;;20.31;61.61;96773.38;10413527;28;20532;-48
2022/08/21 21:44:04;;;;;;;1.27;1.05;;;;;;;20.32;61.72;96769.53;10414031;28;20056;-49
2022/08/21 21:49:33;;;;;;;1.30;1.15;;;;;;;20.31;61.78;96771.47;10407644;28;20045;-49
2022/08/21 21:55:04;;;;;;;1.77;1.20;;;;;;;20.30;61.82;96767.16;10414014;28;20053;-49
2022/08/21 22:00:26;;;;;;;1.20;1.10;;;;;;;20.31;61.86;96784.22;10389704;28;20063;-49
2022/08/21 22:05:50;;;;;;;1.27;1.10;;;;;;;20.30;61.80;96767.16;10413944;28;20053;-49
2022/08/21 22:11:30;;;;;;;1.42;1.10;;;;;;;20.30;61.88;96766.38;10413748;28;20080;-49
2022/08/21 22:16:51;;;;;;;1.92;1.30;;;;;;;20.30;61.92;96767.16;10409237;28;20045;-48
2022/08/21 22:22:14;;;;;;;1.50;1.20;;;;;;;20.30;61.95;96766.38;10412939;28;20567;-49
2022/08/21 22:27:38;;;;;;;1.77;1.30;;;;;;;20.29;61.88;96762.88;10413197;28;20054;-47
2022/08/21 22:32:58;;;;;;;1.63;1.17;;;;;;;20.29;61.94;96768.31;10398497;28;20045;-49
2022/08/21 22:38:38;;;;;;;1.48;1.20;;;;;;;20.29;61.86;96759.41;10413495;28;20119;-49
2022/08/21 22:44:03;;;;;;;1.75;1.15;;;;;;;20.29;61.95;96752.06;10422087;28;20520;-48
2022/08/21 22:49:27;;;;;;;1.63;1.25;;;;;;;20.28;62.05;96745.06;10420343;28;20055;-49
2022/08/21 22:54:48;;;;;;;1.63;1.20;;;;;;;20.29;61.95;96748.59;10420480;28;20064;-47
2022/08/21 23:00:12;;;;;;;1.58;1.10;;;;;;;20.29;61.89;96748.59;10420074;28;20061;-48
2022/08/21 23:05:34;;;;;;;1.38;1.27;;;;;;;20.29;61.83;96754.78;10418313;28;20042;-49
2022/08/21 23:11:21;;;;;;;1.58;1.20;;;;;;;20.29;61.80;96749.38;10419631;28;20061;-48
2022/08/21 23:16:44;;;;;;;1.23;1.13;;;;;;;20.28;61.75;96744.28;10409991;28;20041;-47
2022/08/21 23:22:26;;;;;;;2.28;1.20;;;;;;;20.28;61.80;96741.56;10419254;28;20092;-48
2022/08/21 23:28:07;;;;;;;2.67;1.50;;;;;;;20.27;61.81;96743.50;10419085;28;20065;-48
2022/08/21 23:33:45;;;;;;;1.58;1.23;;;;;;;20.29;61.69;96751.28;10419043;28;20060;-47
2022/08/21 23:39:42;;;;;;;1.70;1.13;;;;;;;20.27;61.74;96746.19;10418223;28;20057;-48
2022/08/21 23:45:19;;;;;;;3.20;1.15;;;;;;;20.27;61.70;96740.00;10414999;28;20323;-49
2022/08/21 23:50:44;;;;;;;1.25;1.15;;;;;;;20.27;61.81;96748.91;10420220;28;20049;-47
2022/08/21 23:56:22;;;;;;;1.20;1.10;;;;;;;20.27;61.74;96756.22;10418058;28;20053;-49
